Time;durP1;ratioP1;P1;durP2;ratioP2;P2;SDS_P1;SDS_P2;PMS_P1;PMS_P2;Temp;Humidity;BMP_temperature;BMP_pressure;BME280_temperature;BME280_humidity;BME280_pressure;Samples;Min_cycle;Max_cycle;Signal;HPM_P1;HPM_P2
2022/02/07 00:00:17;;;;;;;0.00;0.00;;;;;;;;;;10414219;28;20033;-76
2022/02/07 00:05:23;;;;;;;2.60;0.30;;;;;;;;;;10399453;28;20125;-76
2022/02/07 00:10:26;;;;;;;0.63;0.20;;;;;;;;;;10420084;28;20095;-76
2022/02/07 00:15:30;;;;;;;0.00;0.00;;;;;;;;;;10411016;28;20088;-75
2022/02/07 00:20:33;;;;;;;0.00;0.00;;;;;;;;;;10411043;28;20033;-75
2022/02/07 00:25:36;;;;;;;0.00;0.00;;;;;;;;;;10404894;28;20092;-75
2022/02/07 00:30:40;;;;;;;0.10;0.10;;;;;;;;;;10415540;28;20047;-77
2022/02/07 00:35:44;;;;;;;0.00;0.00;;;;;;;;;;10409133;28;20145;-77
2022/02/07 00:41:01;;;;;;;0.00;0.00;;;;;;;;;;10422133;28;20045;-77
2022/02/07 00:46:09;;;;;;;0.00;0.00;;;;;;;;;;10412554;28;20037;-77
2022/02/07 00:51:13;;;;;;;0.00;0.00;;;;;;;;;;10422561;28;20579;-76
2022/02/07 00:56:17;;;;;;;0.00;0.00;;;;;;;;;;10429707;28;20095;-77
2022/02/07 01:01:23;;;;;;;0.17;0.00;;;;;;;;;;10431551;28;20037;-76
2022/02/07 01:06:27;;;;;;;0.20;0.10;;;;;;;;;;10421128;28;20377;-75
2022/02/07 01:11:46;;;;;;;0.00;0.00;;;;;;;;;;10440730;28;20033;-78
2022/02/07 01:17:28;;;;;;;0.00;0.00;;;;;;;;;;10448119;22;20111;-71
2022/02/07 01:22:47;;;;;;;1.13;0.20;;;;;;;;;;10401217;28;20046;-72
2022/02/07 01:54:59;;;;;;;;;;;;;;;;;;10404654;28;20266;-70
2022/02/07 02:00:02;;;;;;;0.63;0.20;;;;;;;;;;10419781;28;19924;-71
2022/02/07 02:05:08;;;;;;;0.40;0.28;;;;;;;;;;10422648;28;20055;-72
2022/02/07 02:10:11;;;;;;;0.03;0.00;;;;;;;;;;10423084;28;20049;-71
2022/02/07 02:15:27;;;;;;;1.15;0.30;;;;;;;;;;10418969;28;20045;-71
2022/02/07 02:37:06;;;;;;;0.00;0.00;;;;;;;;;;10409644;28;20470;-71
2022/02/07 02:47:33;;;;;;;0.20;0.20;;;;;;;;;;10410485;28;20045;-70
2022/02/07 02:52:36;;;;;;;0.20;0.10;;;;;;;;;;10409866;28;20041;-70
2022/02/07 02:57:40;;;;;;;0.43;0.10;;;;;;;;;;10427804;28;20037;-69
2022/02/07 03:02:43;;;;;;;;;;;;;;;;;;10428811;28;20056;-71
2022/02/07 03:07:46;;;;;;;0.00;0.00;;;;;;;;;;10406581;28;19990;-69
2022/02/07 03:13:01;;;;;;;0.53;0.10;;;;;;;;;;10408681;28;20181;-70
2022/02/07 03:18:05;;;;;;;0.10;0.10;;;;;;;;;;10409218;28;20120;-70
2022/02/07 03:23:08;;;;;;;0.73;0.10;;;;;;;;;;10427283;28;20087;-70
2022/02/07 03:28:12;;;;;;;0.87;0.13;;;;;;;;;;10411832;28;20042;-69
2022/02/07 03:33:15;;;;;;;0.20;0.17;;;;;;;;;;10408159;28;20461;-70
2022/02/07 03:38:18;;;;;;;0.30;0.10;;;;;;;;;;10424437;28;20092;-72
2022/02/07 03:43:23;;;;;;;0.10;0.10;;;;;;;;;;10405715;28;20046;-70
2022/02/07 03:48:26;;;;;;;0.10;0.00;;;;;;;;;;10428048;28;20034;-70
2022/02/07 03:53:30;;;;;;;0.10;0.10;;;;;;;;;;10424041;28;20492;-71
2022/02/07 03:58:34;;;;;;;0.00;0.00;;;;;;;;;;10424096;28;20037;-71
2022/02/07 04:03:37;;;;;;;;;;;;;;;;;;10415837;28;20133;-72
2022/02/07 04:08:43;;;;;;;0.00;0.00;;;;;;;;;;10420763;28;20364;-73
2022/02/07 04:13:52;;;;;;;0.20;0.20;;;;;;;;;;10407508;28;20067;-72
2022/02/07 04:19:02;;;;;;;0.30;0.10;;;;;;;;;;10430114;28;20063;-71
2022/02/07 04:24:06;;;;;;;0.10;0.10;;;;;;;;;;10422181;28;20044;-71
2022/02/07 04:29:10;;;;;;;0.40;0.20;;;;;;;;;;10409198;28;20296;-71
2022/02/07 04:34:13;;;;;;;0.43;0.20;;;;;;;;;;10423282;28;20121;-70
2022/02/07 04:39:16;;;;;;;0.30;0.20;;;;;;;;;;10403161;28;20045;-71
2022/02/07 04:44:25;;;;;;;1.50;0.30;;;;;;;;;;10407793;28;20461;-70
2022/02/07 04:54:59;;;;;;;0.20;0.07;;;;;;;;;;10412660;28;20190;-71
2022/02/07 05:00:11;;;;;;;0.20;0.10;;;;;;;;;;10401337;28;20455;-71
2022/02/07 05:05:30;;;;;;;0.70;0.23;;;;;;;;;;10427992;28;20029;-70
2022/02/07 05:15:55;;;;;;;0.20;0.20;;;;;;;;;;10406764;28;20037;-70
2022/02/07 05:20:58;;;;;;;1.67;0.30;;;;;;;;;;10406520;28;20045;-69
2022/02/07 05:26:01;;;;;;;0.77;0.32;;;;;;;;;;10425679;28;20492;-70
2022/02/07 05:31:05;;;;;;;0.20;0.10;;;;;;;;;;10424191;28;20038;-70
2022/02/07 05:36:10;;;;;;;1.80;0.40;;;;;;;;;;10425495;28;20033;-70
2022/02/07 05:41:15;;;;;;;0.40;0.20;;;;;;;;;;10408611;28;20133;-70
2022/02/07 05:46:21;;;;;;;0.30;0.30;;;;;;;;;;10403252;28;20041;-70
2022/02/07 05:51:24;;;;;;;0.83;0.50;;;;;;;;;;10434050;28;20538;-69
2022/02/07 05:56:29;;;;;;;2.80;0.60;;;;;;;;;;10433327;28;20037;-71
2022/02/07 06:01:33;;;;;;;0.53;0.10;;;;;;;;;;10428914;28;20048;-71
2022/02/07 06:06:37;;;;;;;1.63;0.23;;;;;;;;;;10428326;28;20072;-72
2022/02/07 06:11:41;;;;;;;0.60;0.20;;;;;;;;;;10433432;28;20179;-74
2022/02/07 06:16:46;;;;;;;1.75;0.90;;;;;;;;;;10432250;28;20033;-73
2022/02/07 06:21:48;;;;;;;;;;;;;;;;;;10414953;28;20428;-72
2022/02/07 06:26:53;;;;;;;0.00;0.00;;;;;;;;;;10427995;28;19948;-71
2022/02/07 06:31:58;;;;;;;0.20;0.20;;;;;;;;;;10412978;28;20046;-71
2022/02/07 06:37:00;;;;;;;;;;;;;;;;;;10431873;28;20041;-74
2022/02/07 06:42:05;;;;;;;0.37;0.33;;;;;;;;;;10429173;28;19921;-72
2022/02/07 06:47:10;;;;;;;0.63;0.63;;;;;;;;;;10418643;28;20728;-73
2022/02/07 06:52:12;;;;;;;;;;;;;;;;;;10425012;28;20671;-74
2022/02/07 06:57:19;;;;;;;2.40;0.33;;;;;;;;;;10426517;28;19986;-73
2022/02/07 07:02:27;;;;;;;0.17;0.17;;;;;;;;;;10425799;28;20045;-72
2022/02/07 07:07:29;;;;;;;0.20;0.20;;;;;;;;;;10413966;28;20497;-72
2022/02/07 07:12:32;;;;;;;2.67;0.30;;;;;;;;;;10434118;28;20239;-73
2022/02/07 07:17:37;;;;;;;0.20;0.20;;;;;;;;;;10421505;28;20033;-71
2022/02/07 07:22:41;;;;;;;0.57;0.50;;;;;;;;;;10416353;28;20096;-71
2022/02/07 07:27:57;;;;;;;0.70;0.40;;;;;;;;;;10453523;22;20038;-74
2022/02/07 07:33:05;;;;;;;0.83;0.40;;;;;;;;;;10395789;28;20114;-74
2022/02/07 07:38:08;;;;;;;3.57;0.60;;;;;;;;;;10413554;28;20136;-73
2022/02/07 07:43:11;;;;;;;1.67;0.90;;;;;;;;;;10400613;28;20041;-73
2022/02/07 07:48:22;;;;;;;0.60;0.50;;;;;;;;;;10396232;28;20034;-74
2022/02/07 07:53:41;;;;;;;2.87;0.90;;;;;;;;;;10421996;28;20044;-74
2022/02/07 08:04:09;;;;;;;0.63;0.37;;;;;;;;;;10395971;28;20080;-74
2022/02/07 08:09:22;;;;;;;1.90;0.93;;;;;;;;;;10392085;28;20098;-74
2022/02/07 08:14:28;;;;;;;1.17;0.77;;;;;;;;;;10395004;28;20095;-75
2022/02/07 08:19:53;;;;;;;2.00;0.50;;;;;;;;;;10398679;28;20462;-74
2022/02/07 08:24:57;;;;;;;2.93;0.80;;;;;;;;;;10416157;28;20030;-74
2022/02/07 08:30:04;;;;;;;2.33;0.47;;;;;;;;;;10395428;28;20037;-74
2022/02/07 08:35:08;;;;;;;;;;;;;;;;;;10421598;28;20037;-73
2022/02/07 08:40:13;;;;;;;0.73;0.60;;;;;;;;;;10390837;28;20046;-73
2022/02/07 08:45:18;;;;;;;2.97;1.07;;;;;;;;;;10414807;28;20033;-74
2022/02/07 08:50:21;;;;;;;3.13;0.63;;;;;;;;;;10403642;28;20519;-74
2022/02/07 08:55:30;;;;;;;3.77;0.63;;;;;;;;;;10384969;28;20040;-73
2022/02/07 09:00:45;;;;;;;0.40;0.33;;;;;;;;;;10378222;28;20049;-74
2022/02/07 09:05:55;;;;;;;2.78;1.10;;;;;;;;;;10384777;28;20377;-74
2022/02/07 09:10:59;;;;;;;2.63;0.90;;;;;;;;;;10389467;28;20714;-73
2022/02/07 09:16:15;;;;;;;3.27;0.90;;;;;;;;;;10411711;28;20063;-73
2022/02/07 09:21:18;;;;;;;2.00;1.30;;;;;;;;;;10393637;28;20045;-74
2022/02/07 09:26:22;;;;;;;1.15;0.40;;;;;;;;;;10395930;28;20037;-73
2022/02/07 09:31:25;;;;;;;;;;;;;;;;;;10397338;28;20103;-73
2022/02/07 09:36:28;;;;;;;2.20;0.60;;;;;;;;;;10400067;28;19921;-74
2022/02/07 09:41:34;;;;;;;7.07;0.55;;;;;;;;;;10413408;28;21045;-73
2022/02/07 09:46:44;;;;;;;2.38;0.63;;;;;;;;;;10400703;28;20053;-75
2022/02/07 09:51:48;;;;;;;3.35;0.82;;;;;;;;;;10417790;28;20067;-75
2022/02/07 09:56:54;;;;;;;4.95;1.00;;;;;;;;;;10398270;28;20037;-75
2022/02/07 10:02:00;;;;;;;1.93;0.73;;;;;;;;;;10432170;28;20572;-74
2022/02/07 10:07:14;;;;;;;4.73;0.90;;;;;;;;;;10421143;28;20042;-75
2022/02/07 10:12:36;;;;;;;1.40;0.53;;;;;;;;;;10407606;28;20033;-74
2022/02/07 10:17:47;;;;;;;1.13;0.93;;;;;;;;;;10403029;28;20041;-75
2022/02/07 10:39:14;;;;;;;1.00;0.60;;;;;;;;;;10436855;28;20147;-73
2022/02/07 10:44:38;;;;;;;5.20;1.37;;;;;;;;;;10440817;28;20114;-74
2022/02/07 10:49:55;;;;;;;4.30;1.27;;;;;;;;;;10424660;28;20049;-74
2022/02/07 10:54:58;;;;;;;4.83;0.50;;;;;;;;;;10434002;28;20041;-72
2022/02/07 11:00:06;;;;;;;0.53;0.33;;;;;;;;;;10435590;28;20045;-74
2022/02/07 11:05:13;;;;;;;1.53;0.70;;;;;;;;;;10406564;28;20045;-73
2022/02/07 11:10:29;;;;;;;0.97;0.57;;;;;;;;;;10403437;28;20060;-76
2022/02/07 11:15:38;;;;;;;0.77;0.47;;;;;;;;;;10418030;28;20029;-74
2022/02/07 11:20:59;;;;;;;2.73;0.47;;;;;;;;;;10404673;28;20045;-75
2022/02/07 11:26:27;;;;;;;3.43;1.00;;;;;;;;;;10415818;28;20045;-75
2022/02/07 11:31:32;;;;;;;2.33;1.00;;;;;;;;;;10401237;28;20116;-75
2022/02/07 11:36:35;;;;;;;1.57;0.80;;;;;;;;;;10411253;28;20044;-75
2022/02/07 11:41:57;;;;;;;3.95;1.00;;;;;;;;;;10413511;28;20405;-74
2022/02/07 11:47:14;;;;;;;4.63;0.90;;;;;;;;;;10392696;28;20033;-73
2022/02/07 11:52:27;;;;;;;5.43;1.13;;;;;;;;;;10390883;28;20037;-73
2022/02/07 11:57:34;;;;;;;8.03;1.30;;;;;;;;;;10394703;28;20041;-74
2022/02/07 12:02:41;;;;;;;1.53;0.50;;;;;;;;;;10395785;28;20371;-74
2022/02/07 12:07:58;;;;;;;0.13;0.13;;;;;;;;;;10414642;28;20049;-75
2022/02/07 12:13:05;;;;;;;3.57;0.93;;;;;;;;;;10414530;28;20141;-76
2022/02/07 12:18:22;;;;;;;1.50;0.53;;;;;;;;;;10403043;28;20041;-75
2022/02/07 12:23:28;;;;;;;2.23;0.97;;;;;;;;;;10420923;28;20049;-74
2022/02/07 12:28:39;;;;;;;0.80;0.43;;;;;;;;;;10410344;28;20033;-74
2022/02/07 12:33:45;;;;;;;5.10;0.80;;;;;;;;;;10404999;28;20107;-74
2022/02/07 12:38:48;;;;;;;3.67;0.97;;;;;;;;;;10404970;28;20057;-75
2022/02/07 12:43:54;;;;;;;8.77;1.35;;;;;;;;;;10412578;28;20042;-76
2022/02/07 12:49:01;;;;;;;1.53;0.63;;;;;;;;;;10395520;28;20047;-75
2022/02/07 12:54:05;;;;;;;0.93;0.60;;;;;;;;;;10408268;28;20049;-74
2022/02/07 12:59:08;;;;;;;2.20;0.80;;;;;;;;;;10406019;28;20048;-74
2022/02/07 13:04:14;;;;;;;3.07;0.90;;;;;;;;;;10409728;28;20041;-71
2022/02/07 13:09:21;;;;;;;3.33;1.03;;;;;;;;;;10398494;28;20029;-73
2022/02/07 13:14:24;;;;;;;16.50;1.37;;;;;;;;;;10428827;28;20056;-72
2022/02/07 13:19:35;;;;;;;2.87;0.30;;;;;;;;;;10415062;28;20083;-74
2022/02/07 13:24:40;;;;;;;1.10;0.70;;;;;;;;;;10442379;28;20025;-72
2022/02/07 13:29:45;;;;;;;2.17;1.07;;;;;;;;;;10375129;22;20045;-74
2022/02/07 13:34:50;;;;;;;5.83;1.70;;;;;;;;;;10347416;28;20065;-73
2022/02/07 13:39:54;;;;;;;2.87;0.80;;;;;;;;;;10373751;28;20034;-75
2022/02/07 13:44:58;;;;;;;2.38;0.80;;;;;;;;;;10380211;28;20474;-75
2022/02/07 13:50:05;;;;;;;5.77;1.67;;;;;;;;;;10387036;28;20041;-75
2022/02/07 13:55:13;;;;;;;0.83;0.43;;;;;;;;;;10383063;28;22434;-74
2022/02/07 14:00:16;;;;;;;3.20;1.03;;;;;;;;;;10380444;28;20045;-75
2022/02/07 14:05:20;;;;;;;0.83;0.63;;;;;;;;;;10385358;28;20065;-75
2022/02/07 14:10:23;;;;;;;4.30;1.40;;;;;;;;;;10393106;28;20561;-75
2022/02/07 14:15:27;;;;;;;3.42;0.90;;;;;;;;;;10388757;28;20511;-76
2022/02/07 14:20:34;;;;;;;3.43;1.00;;;;;;;;;;10393413;28;20385;-75
2022/02/07 14:25:37;;;;;;;4.53;1.67;;;;;;;;;;10397742;28;20049;-75
2022/02/07 14:30:40;;;;;;;1.97;0.60;;;;;;;;;;10400487;28;20544;-75
2022/02/07 14:35:44;;;;;;;2.07;1.07;;;;;;;;;;10395769;28;20042;-74
2022/02/07 14:40:48;;;;;;;4.27;1.60;;;;;;;;;;10390416;28;20504;-76
2022/02/07 14:46:07;;;;;;;1.53;0.90;;;;;;;;;;10396184;28;20513;-76
2022/02/07 14:51:12;;;;;;;5.23;1.73;;;;;;;;;;10391431;28;20080;-76
2022/02/07 14:56:15;;;;;;;4.17;1.20;;;;;;;;;;10402454;28;20091;-75
2022/02/07 15:01:18;;;;;;;1.53;0.90;;;;;;;;;;10399343;28;20043;-75
2022/02/07 15:06:22;;;;;;;0.83;0.60;;;;;;;;;;10394875;28;20287;-74
2022/02/07 15:11:27;;;;;;;3.70;0.87;;;;;;;;;;10402185;28;20120;-75
2022/02/07 15:16:30;;;;;;;6.70;1.37;;;;;;;;;;10396944;28;20049;-74
2022/02/07 15:21:34;;;;;;;4.90;1.50;;;;;;;;;;10389320;28;20034;-75
2022/02/07 15:26:38;;;;;;;2.67;0.60;;;;;;;;;;10381113;28;20131;-74
2022/02/07 15:31:46;;;;;;;3.50;0.75;;;;;;;;;;10382825;28;20374;-74
2022/02/07 15:36:51;;;;;;;4.80;1.00;;;;;;;;;;10375262;28;20100;-74
2022/02/07 15:41:54;;;;;;;1.43;0.80;;;;;;;;;;10381522;28;20041;-74
2022/02/07 15:46:58;;;;;;;4.13;1.27;;;;;;;;;;10384290;28;20099;-74
2022/02/07 15:52:02;;;;;;;1.70;0.88;;;;;;;;;;10384028;28;20282;-75
2022/02/07 15:57:10;;;;;;;2.77;1.03;;;;;;;;;;10382717;28;20145;-74
2022/02/07 16:02:12;;;;;;;1.92;1.17;;;;;;;;;;10381193;28;20050;-74
2022/02/07 16:07:17;;;;;;;1.90;0.80;;;;;;;;;;10386539;28;20058;-73
2022/02/07 16:12:21;;;;;;;2.37;1.17;;;;;;;;;;10387370;28;20038;-74
2022/02/07 16:17:25;;;;;;;1.63;0.65;;;;;;;;;;10383276;28;20592;-76
2022/02/07 16:22:29;;;;;;;2.37;0.70;;;;;;;;;;10387223;28;20111;-74
2022/02/07 16:27:31;;;;;;;;;;;;;;;;;;10386360;28;20289;-74
2022/02/07 16:32:34;;;;;;;3.07;0.60;;;;;;;;;;10387329;28;19921;-74
2022/02/07 16:37:38;;;;;;;2.33;0.90;;;;;;;;;;10383093;28;20041;-74
2022/02/07 16:42:42;;;;;;;4.03;0.60;;;;;;;;;;10382203;28;20061;-74
2022/02/07 16:47:45;;;;;;;1.85;0.73;;;;;;;;;;10386225;28;20053;-74
2022/02/07 16:52:50;;;;;;;1.43;0.97;;;;;;;;;;10381295;28;20576;-74
2022/02/07 16:57:52;;;;;;;;;;;;;;;;;;10379601;28;20053;-74
2022/02/07 17:02:56;;;;;;;2.07;1.07;;;;;;;;;;10370276;28;19953;-74
2022/02/07 17:08:05;;;;;;;1.77;0.23;;;;;;;;;;10391063;28;20038;-74
2022/02/07 17:13:09;;;;;;;3.33;1.37;;;;;;;;;;10385307;28;20045;-74
2022/02/07 17:18:15;;;;;;;3.25;1.38;;;;;;;;;;10386542;28;20053;-75
2022/02/07 17:23:21;;;;;;;1.57;0.67;;;;;;;;;;10389057;28;20033;-74
2022/02/07 17:28:24;;;;;;;2.03;0.93;;;;;;;;;;10385165;28;20048;-74
2022/02/07 17:33:27;;;;;;;2.73;1.10;;;;;;;;;;10386418;28;20437;-75
2022/02/07 17:38:32;;;;;;;1.93;0.77;;;;;;;;;;10387331;28;20042;-74
2022/02/07 17:43:42;;;;;;;2.87;1.20;;;;;;;;;;10392357;28;20038;-74
2022/02/07 17:48:45;;;;;;;2.80;0.97;;;;;;;;;;10386147;28;20433;-75
2022/02/07 17:53:50;;;;;;;3.83;0.82;;;;;;;;;;10392464;28;20111;-75
2022/02/07 17:58:54;;;;;;;1.47;0.60;;;;;;;;;;10397627;28;20097;-74
2022/02/07 18:03:58;;;;;;;0.90;0.70;;;;;;;;;;10389317;28;20072;-74
2022/02/07 18:09:03;;;;;;;4.90;1.50;;;;;;;;;;10383656;28;20037;-75
2022/02/07 18:14:06;;;;;;;0.77;0.57;;;;;;;;;;10391233;28;20069;-75
2022/02/07 18:19:21;;;;;;;7.17;1.20;;;;;;;;;;10387127;28;20042;-73
2022/02/07 18:24:27;;;;;;;3.73;1.10;;;;;;;;;;10393625;28;20037;-74
2022/02/07 18:29:29;;;;;;;;;;;;;;;;;;10389338;28;20082;-74
2022/02/07 18:34:34;;;;;;;5.30;1.53;;;;;;;;;;10388518;28;19928;-74
2022/02/07 18:39:44;;;;;;;2.33;1.13;;;;;;;;;;10388348;28;20505;-75
2022/02/07 18:44:53;;;;;;;6.30;1.33;;;;;;;;;;10387180;28;20521;-75
2022/02/07 18:49:56;;;;;;;2.20;1.03;;;;;;;;;;10387501;28;20029;-75
2022/02/07 18:55:01;;;;;;;2.67;0.80;;;;;;;;;;10395364;28;20194;-75
2022/02/07 19:00:11;;;;;;;1.90;0.90;;;;;;;;;;10393371;28;20045;-75
2022/02/07 19:05:28;;;;;;;5.83;1.47;;;;;;;;;;10396296;28;20073;-76
2022/02/07 19:10:32;;;;;;;4.00;1.27;;;;;;;;;;10393287;28;20049;-75
2022/02/07 19:15:37;;;;;;;1.83;1.57;;;;;;;;;;10393785;28;20115;-74
2022/02/07 19:20:42;;;;;;;1.40;0.93;;;;;;;;;;10384661;28;20111;-75
2022/02/07 19:25:56;;;;;;;1.20;0.77;;;;;;;;;;10387330;28;20448;-73
2022/02/07 19:31:06;;;;;;;2.23;1.23;;;;;;;;;;10391634;28;20044;-74
2022/02/07 19:36:09;;;;;;;1.13;0.57;;;;;;;;;;10394974;28;20107;-75
2022/02/07 19:41:24;;;;;;;2.80;1.33;;;;;;;;;;10379855;28;20052;-74
2022/02/07 19:46:27;;;;;;;4.30;1.10;;;;;;;;;;10382914;28;20037;-75
2022/02/07 19:51:30;;;;;;;3.67;1.60;;;;;;;;;;10387251;28;20125;-75
2022/02/07 19:56:35;;;;;;;7.13;1.83;;;;;;;;;;10391580;28;20046;-75
2022/02/07 20:01:38;;;;;;;0.57;0.40;;;;;;;;;;10385707;28;20030;-73
2022/02/07 20:06:42;;;;;;;2.55;0.98;;;;;;;;;;10388152;28;21386;-74
2022/02/07 20:11:57;;;;;;;1.90;0.60;;;;;;;;;;10383685;28;20064;-74
2022/02/07 20:17:02;;;;;;;7.47;1.23;;;;;;;;;;10388684;28;20049;-73
2022/02/07 20:22:07;;;;;;;1.93;1.17;;;;;;;;;;10373990;28;20136;-75
2022/02/07 20:27:12;;;;;;;3.23;0.90;;;;;;;;;;10387289;28;20555;-73
2022/02/07 20:32:15;;;;;;;2.00;1.00;;;;;;;;;;10392990;28;20065;-74
2022/02/07 20:37:18;;;;;;;1.15;0.70;;;;;;;;;;10378482;28;20045;-75
2022/02/07 20:42:25;;;;;;;1.27;0.70;;;;;;;;;;10370406;28;20103;-74
2022/02/07 20:47:31;;;;;;;1.17;0.63;;;;;;;;;;10380837;28;20061;-75
2022/02/07 20:52:33;;;;;;;1.17;0.70;;;;;;;;;;10374261;28;20037;-75
2022/02/07 20:57:38;;;;;;;2.80;1.03;;;;;;;;;;10386978;28;20417;-74
2022/02/07 21:03:04;;;;;;;3.23;1.17;;;;;;;;;;10390632;28;20033;-76
2022/02/07 21:08:09;;;;;;;3.73;0.83;;;;;;;;;;10387961;28;20041;-75
2022/02/07 21:13:15;;;;;;;2.50;1.02;;;;;;;;;;10385412;28;20111;-74
2022/02/07 21:18:18;;;;;;;2.47;1.03;;;;;;;;;;10383052;28;20042;-75
2022/02/07 21:23:21;;;;;;;1.93;0.83;;;;;;;;;;10384152;28;20083;-76
2022/02/07 21:28:26;;;;;;;2.60;0.88;;;;;;;;;;10383114;28;20033;-75
2022/02/07 21:33:31;;;;;;;2.10;0.83;;;;;;;;;;10382435;28;20624;-75
2022/02/07 21:38:36;;;;;;;4.27;1.37;;;;;;;;;;10382146;28;20058;-75
2022/02/07 21:43:40;;;;;;;1.00;0.90;;;;;;;;;;10383072;28;20045;-76
2022/02/07 21:48:43;;;;;;;0.53;0.30;;;;;;;;;;10377318;28;20041;-75
2022/02/07 21:53:46;;;;;;;1.23;0.57;;;;;;;;;;10382138;28;20571;-76
2022/02/07 21:58:50;;;;;;;4.23;0.70;;;;;;;;;;10381586;28;20038;-75
2022/02/07 22:03:54;;;;;;;6.70;1.40;;;;;;;;;;10388013;28;20466;-74
2022/02/07 22:08:58;;;;;;;1.03;0.57;;;;;;;;;;10382054;28;20052;-75
2022/02/07 22:14:03;;;;;;;2.47;0.67;;;;;;;;;;10380634;28;20053;-76
2022/02/07 22:19:07;;;;;;;3.47;1.20;;;;;;;;;;10383445;28;20529;-74
2022/02/07 22:24:10;;;;;;;0.60;0.50;;;;;;;;;;10381094;28;20568;-75
2022/02/07 22:29:18;;;;;;;3.05;1.20;;;;;;;;;;10385521;28;20061;-75
2022/02/07 22:34:27;;;;;;;3.20;0.77;;;;;;;;;;10389078;28;20030;-75
2022/02/07 22:39:31;;;;;;;0.50;0.50;;;;;;;;;;10389753;28;20906;-74
2022/02/07 22:44:42;;;;;;;1.03;0.50;;;;;;;;;;10387409;28;20044;-75
2022/02/07 22:49:45;;;;;;;7.67;0.63;;;;;;;;;;10388837;28;20065;-75
2022/02/07 22:54:48;;;;;;;4.13;0.30;;;;;;;;;;10388665;28;20038;-75
2022/02/07 22:59:53;;;;;;;5.63;1.30;;;;;;;;;;10383152;28;20033;-75
2022/02/07 23:04:59;;;;;;;2.07;1.50;;;;;;;;;;10442597;22;20140;-68
2022/02/07 23:10:19;;;;;;;3.77;0.87;;;;;;;;;;10444989;28;20056;-67
2022/02/07 23:15:33;;;;;;;2.07;1.20;;;;;;;;;;10435727;28;20132;-67
2022/02/07 23:31:47;;;;;;;2.43;1.13;;;;;;;;;;10233498;28;20077;-74
2022/02/07 23:36:59;;;;;;;;;;;;;;;;;;10245122;28;20507;-75
2022/02/07 23:42:04;;;;;;;10.87;1.00;;;;;;;;;;10280116;28;19922;-74
2022/02/07 23:47:15;;;;;;;;;;;;;;;;;;10247857;28;20122;-74
2022/02/07 23:52:29;;;;;;;1.00;0.67;;;;;;;;;;10273509;28;20315;-75
2022/02/07 23:57:40;;;;;;;0.90;0.40;;;;;;;;;;10241840;28;20455;-73
